Time,TemperatureF,DewpointF,PressureIn,WindDirection,WindDirectionDegrees,WindSpeedMPH,WindSpeedGustMPH,Humidity,HourlyPrecipIn,Conditions,Clouds,dailyrainin,SoftwareType,DateUTC
2013-06-22 00:01:00,69.3,65.8,30.14,SW,222,0.0,0.0,89,0.00,,,0.00,meteohub,2013-06-22 04:01:00,
2013-06-22 00:02:00,69.3,65.8,30.14,SW,222,0.0,0.0,89,0.00,,,0.00,meteohub,2013-06-22 04:02:00,
2013-06-22 00:07:00,69.1,65.7,30.14,SW,222,0.0,0.0,89,0.00,,,0.00,meteohub,2013-06-22 04:07:00,
2013-06-22 00:12:00,68.9,65.8,30.14,SW,222,0.0,0.0,90,0.00,,,0.00,meteohub,2013-06-22 04:12:00,
2013-06-22 00:17:00,68.7,65.7,30.14,SW,222,0.0,0.0,90,0.00,,,0.00,meteohub,2013-06-22 04:17:00,
2013-06-22 00:22:00,68.5,65.5,30.15,SW,222,0.0,0.0,90,0.00,,,0.00,meteohub,2013-06-22 04:22:00,
2013-06-22 00:27:00,68.4,65.3,30.14,SW,222,0.0,0.0,90,0.00,,,0.00,meteohub,2013-06-22 04:27:00,
2013-06-22 00:32:00,68.4,65.3,30.14,SW,222,0.0,0.0,90,0.00,,,0.00,meteohub,2013-06-22 04:32:00,
2013-06-22 00:37:00,68.2,65.1,30.14,SW,222,0.0,0.0,90,0.00,,,0.00,meteohub,2013-06-22 04:37:00,
2013-06-22 00:42:00,68.2,65.1,30.14,SW,222,0.0,0.0,90,0.00,,,0.00,meteohub,2013-06-22 04:42:00,
2013-06-22 00:47:00,68.0,64.9,30.14,SW,222,0.0,0.0,90,0.00,,,0.00,meteohub,2013-06-22 04:47:00,
2013-06-22 00:52:00,67.8,64.8,30.14,SW,222,0.0,0.0,90,0.00,,,0.00,meteohub,2013-06-22 04:52:00,
2013-06-22 00:57:00,67.6,64.6,30.14,SW,222,0.0,0.0,90,0.00,,,0.00,meteohub,2013-06-22 04:57:00,
2013-06-22 01:02:00,67.6,64.9,30.14,SW,222,0.0,0.0,91,0.00,,,0.00,meteohub,2013-06-22 05:02:00,
2013-06-22 01:07:00,67.5,64.8,30.14,SW,222,0.0,0.0,91,0.00,,,0.00,meteohub,2013-06-22 05:07:00,
2013-06-22 01:12:00,67.5,64.8,30.14,SW,222,0.0,0.0,91,0.00,,,0.00,meteohub,2013-06-22 05:12:00,
2013-06-22 01:17:00,67.3,64.9,30.14,SW,222,0.0,0.0,92,0.00,,,0.00,meteohub,2013-06-22 05:17:00,
2013-06-22 01:22:00,67.3,64.9,30.14,SW,222,0.0,0.0,92,0.00,,,0.00,meteohub,2013-06-22 05:22:00,
2013-06-22 01:27:00,67.1,64.8,30.14,SW,222,0.0,0.0,92,0.00,,,0.00,meteohub,2013-06-22 05:27:00,
2013-06-22 01:32:00,66.9,64.6,30.14,SW,222,0.0,0.0,92,0.00,,,0.00,meteohub,2013-06-22 05:32:00,
2013-06-22 01:37:00,66.7,64.6,30.14,SW,222,0.0,0.0,93,0.00,,,0.00,meteohub,2013-06-22 05:37:00,
2013-06-22 01:42:00,66.6,64.4,30.14,SW,222,0.0,0.0,93,0.00,,,0.00,meteohub,2013-06-22 05:42:00,
2013-06-22 01:47:00,66.6,64.4,30.14,SW,222,0.0,0.0,93,0.00,,,0.00,meteohub,2013-06-22 05:47:00,
2013-06-22 01:52:00,66.4,64.2,30.13,SW,222,0.0,0.0,93,0.00,,,0.00,meteohub,2013-06-22 05:52:00,
2013-06-22 01:57:00,66.4,64.2,30.13,SW,222,0.0,0.0,93,0.00,,,0.00,meteohub,2013-06-22 05:57:00,
2013-06-22 02:02:00,66.4,64.2,30.13,SW,222,0.0,0.0,93,0.00,,,0.00,meteohub,2013-06-22 06:02:00,
2013-06-22 02:07:00,66.4,64.2,30.13,SW,222,0.0,0.0,93,0.00,,,0.00,meteohub,2013-06-22 06:07:00,
2013-06-22 02:12:00,66.4,64.2,30.13,SW,222,0.0,0.0,93,0.00,,,0.00,meteohub,2013-06-22 06:12:00,
2013-06-22 02:17:00,66.4,64.2,30.12,SW,222,0.0,0.0,93,0.00,,,0.00,meteohub,2013-06-22 06:17:00,
2013-06-22 02:22:00,66.4,64.2,30.12,SW,222,0.0,0.0,93,0.00,,,0.00,meteohub,2013-06-22 06:22:00,
2013-06-22 02:27:00,66.4,64.2,30.12,SW,222,0.0,0.0,93,0.00,,,0.00,meteohub,2013-06-22 06:27:00,
2013-06-22 02:32:00,66.2,64.0,30.12,SW,222,0.0,0.0,93,0.00,,,0.00,meteohub,2013-06-22 06:32:00,
2013-06-22 02:37:00,66.0,63.9,30.12,SW,222,0.0,0.0,93,0.00,,,0.00,meteohub,2013-06-22 06:37:00,
2013-06-22 02:42:00,66.0,63.9,30.12,SW,222,0.0,0.0,93,0.00,,,0.00,meteohub,2013-06-22 06:42:00,
2013-06-22 02:47:00,66.0,63.9,30.12,SW,222,0.0,0.0,93,0.00,,,0.00,meteohub,2013-06-22 06:47:00,
2013-06-22 02:52:00,65.8,64.0,30.12,SW,222,0.0,0.0,94,0.00,,,0.00,meteohub,2013-06-22 06:52:00,
2013-06-22 02:57:00,65.8,64.0,30.12,SW,222,0.0,0.0,94,0.00,,,0.00,meteohub,2013-06-22 06:57:00,
2013-06-22 03:02:00,65.7,63.9,30.12,SW,222,0.0,0.0,94,0.00,,,0.00,meteohub,2013-06-22 07:02:00,
2013-06-22 03:07:00,65.5,63.7,30.12,SW,222,0.0,0.0,94,0.00,,,0.00,meteohub,2013-06-22 07:07:00,
2013-06-22 03:12:00,65.5,63.7,30.12,SW,222,0.0,0.0,94,0.00,,,0.00,meteohub,2013-06-22 07:12:00,
2013-06-22 03:17:00,65.5,63.7,30.12,SW,222,0.0,0.0,94,0.00,,,0.00,meteohub,2013-06-22 07:17:00,
2013-06-22 03:22:00,65.3,63.5,30.12,SW,222,0.0,0.0,94,0.00,,,0.00,meteohub,2013-06-22 07:22:00,
2013-06-22 03:27:00,65.1,63.3,30.12,SW,222,0.0,0.0,94,0.00,,,0.00,meteohub,2013-06-22 07:27:00,
2013-06-22 03:32:00,65.1,63.3,30.12,SW,222,0.0,0.0,94,0.00,,,0.00,meteohub,2013-06-22 07:32:00,
2013-06-22 03:37:00,65.1,63.7,30.12,SW,222,0.0,0.0,95,0.00,,,0.00,meteohub,2013-06-22 07:37:00,
2013-06-22 03:42:00,65.1,63.7,30.12,SW,222,0.0,0.0,95,0.00,,,0.00,meteohub,2013-06-22 07:42:00,
2013-06-22 03:47:00,65.1,63.3,30.12,SW,222,0.0,0.0,94,0.00,,,0.00,meteohub,2013-06-22 07:47:00,
2013-06-22 03:52:00,65.1,63.3,30.12,SW,222,0.0,0.0,94,0.00,,,0.00,meteohub,2013-06-22 07:52:00,
2013-06-22 03:57:00,65.1,63.3,30.12,SW,222,0.0,0.0,94,0.00,,,0.00,meteohub,2013-06-22 07:57:00,
2013-06-22 04:02:00,65.1,63.3,30.12,SW,222,0.0,0.0,94,0.00,,,0.00,meteohub,2013-06-22 08:02:00,
2013-06-22 04:07:00,65.1,63.3,30.12,SW,222,0.0,0.0,94,0.00,,,0.00,meteohub,2013-06-22 08:07:00,
2013-06-22 04:12:00,65.1,63.7,30.12,SW,222,0.0,0.0,95,0.00,,,0.00,meteohub,2013-06-22 08:12:00,
2013-06-22 04:17:00,65.1,63.7,30.12,SW,222,0.0,0.0,95,0.00,,,0.00,meteohub,2013-06-22 08:17:00,
2013-06-22 04:22:00,65.3,63.9,30.12,SW,222,0.0,0.0,95,0.00,,,0.00,meteohub,2013-06-22 08:22:00,
2013-06-22 04:27:00,65.5,64.0,30.12,SW,222,0.0,0.0,95,0.00,,,0.00,meteohub,2013-06-22 08:27:00,
2013-06-22 04:32:00,65.5,63.7,30.12,SW,222,0.0,0.0,94,0.00,,,0.00,meteohub,2013-06-22 08:32:00,
2013-06-22 04:37:00,65.5,63.7,30.12,SW,222,0.0,0.0,94,0.00,,,0.00,meteohub,2013-06-22 08:37:00,
2013-06-22 04:42:00,65.5,63.7,30.12,SW,222,0.0,0.0,94,0.00,,,0.00,meteohub,2013-06-22 08:42:00,
2013-06-22 04:47:00,65.5,63.7,30.12,SW,222,0.0,0.0,94,0.00,,,0.00,meteohub,2013-06-22 08:47:00,
2013-06-22 04:52:00,65.5,63.7,30.12,SW,222,0.0,0.0,94,0.00,,,0.00,meteohub,2013-06-22 08:52:00,
2013-06-22 04:57:00,65.5,63.7,30.13,SW,222,0.0,0.0,94,0.00,,,0.00,meteohub,2013-06-22 08:57:00,
2013-06-22 05:02:00,65.3,63.5,30.13,SW,222,0.0,0.0,94,0.00,,,0.00,meteohub,2013-06-22 09:02:00,
2013-06-22 05:07:00,65.3,63.5,30.13,SW,222,0.0,0.0,94,0.00,,,0.00,meteohub,2013-06-22 09:07:00,
2013-06-22 05:12:00,65.1,63.3,30.13,SW,222,0.0,0.0,94,0.00,,,0.00,meteohub,2013-06-22 09:12:00,
2013-06-22 05:17:00,65.1,63.3,30.13,SW,222,0.0,0.0,94,0.00,,,0.00,meteohub,2013-06-22 09:17:00,
2013-06-22 05:22:00,65.1,63.3,30.13,SW,222,0.0,0.0,94,0.00,,,0.00,meteohub,2013-06-22 09:22:00,
2013-06-22 05:27:00,65.1,63.3,30.13,SW,222,0.0,0.0,94,0.00,,,0.00,meteohub,2013-06-22 09:27:00,
2013-06-22 05:32:00,65.3,63.9,30.13,SW,222,0.0,0.0,95,0.00,,,0.00,meteohub,2013-06-22 09:32:00,
2013-06-22 05:37:00,65.3,63.9,30.13,SW,222,0.0,0.0,95,0.00,,,0.00,meteohub,2013-06-22 09:37:00,
2013-06-22 05:42:00,65.3,63.9,30.13,SW,222,0.0,0.0,95,0.00,,,0.00,meteohub,2013-06-22 09:42:00,
2013-06-22 05:47:00,65.3,63.5,30.13,SW,222,0.0,0.0,94,0.00,,,0.00,meteohub,2013-06-22 09:47:00,
2013-06-22 05:52:00,65.3,63.5,30.14,SW,222,0.0,0.0,94,0.00,,,0.00,meteohub,2013-06-22 09:52:00,
2013-06-22 05:57:00,65.3,63.5,30.14,SW,222,0.0,0.0,94,0.00,,,0.00,meteohub,2013-06-22 09:57:00,
2013-06-22 06:02:00,65.3,63.5,30.14,SW,222,0.0,0.0,94,0.00,,,0.00,meteohub,2013-06-22 10:02:00,
2013-06-22 06:07:00,65.3,63.5,30.14,SW,222,0.0,0.0,94,0.00,,,0.00,meteohub,2013-06-22 10:07:00,
2013-06-22 06:12:00,65.3,63.5,30.14,SW,222,0.0,0.0,94,0.00,,,0.00,meteohub,2013-06-22 10:12:00,
2013-06-22 06:17:00,65.3,63.5,30.14,SW,222,0.0,0.0,94,0.00,,,0.00,meteohub,2013-06-22 10:17:00,
2013-06-22 06:22:00,65.1,63.3,30.14,SW,222,0.0,0.0,94,0.00,,,0.00,meteohub,2013-06-22 10:22:00,
2013-06-22 06:27:00,65.1,63.3,30.14,SW,222,0.0,1.0,94,0.00,,,0.00,meteohub,2013-06-22 10:27:00,
2013-06-22 06:32:00,65.1,63.3,30.14,SW,222,0.0,1.0,94,0.00,,,0.00,meteohub,2013-06-22 10:32:00,
2013-06-22 06:37:00,65.1,63.3,30.13,SW,222,0.0,0.0,94,0.00,,,0.00,meteohub,2013-06-22 10:37:00,
2013-06-22 06:42:00,64.9,63.1,30.14,SW,222,0.0,1.0,94,0.00,,,0.00,meteohub,2013-06-22 10:42:00,
2013-06-22 06:47:00,64.9,63.1,30.13,SW,222,0.0,1.0,94,0.00,,,0.00,meteohub,2013-06-22 10:47:00,
2013-06-22 06:52:00,64.9,63.1,30.14,SW,222,0.0,0.0,94,0.00,,,0.00,meteohub,2013-06-22 10:52:00,
2013-06-22 06:57:00,64.8,63.0,30.14,SW,222,0.0,0.0,94,0.00,,,0.00,meteohub,2013-06-22 10:57:00,
2013-06-22 07:00:00,64.8,63.0,30.14,SW,222,0.0,0.0,94,0.00,,,0.00,meteohub,2013-06-22 11:00:00,
2013-06-22 07:07:00,64.8,63.3,30.14,SW,222,0.0,0.0,95,0.00,,,0.00,meteohub,2013-06-22 11:07:00,
2013-06-22 07:12:00,64.8,63.3,30.14,SW,222,0.0,1.0,95,0.00,,,0.00,meteohub,2013-06-22 11:12:00,
2013-06-22 07:17:00,64.8,63.3,30.14,SW,222,0.0,1.0,95,0.00,,,0.00,meteohub,2013-06-22 11:17:00,
2013-06-22 07:22:00,64.8,63.3,30.14,SW,222,0.0,1.0,95,0.00,,,0.00,meteohub,2013-06-22 11:22:00,
2013-06-22 07:27:00,64.8,63.3,30.15,SW,222,0.0,0.0,95,0.00,,,0.00,meteohub,2013-06-22 11:27:00,
2013-06-22 07:32:00,64.8,63.3,30.15,SW,222,0.0,0.0,95,0.00,,,0.00,meteohub,2013-06-22 11:32:00,
2013-06-22 07:37:00,64.8,63.3,30.15,SW,222,0.0,0.0,95,0.00,,,0.00,meteohub,2013-06-22 11:37:00,
2013-06-22 07:42:00,64.8,63.3,30.15,SW,222,0.0,0.0,95,0.00,,,0.00,meteohub,2013-06-22 11:42:00,
2013-06-22 07:47:00,64.9,63.5,30.15,SW,222,0.0,0.0,95,0.00,,,0.00,meteohub,2013-06-22 11:47:00,
2013-06-22 07:52:00,65.1,63.7,30.15,SW,222,0.0,0.0,95,0.00,,,0.00,meteohub,2013-06-22 11:52:00,
2013-06-22 07:57:00,65.5,64.0,30.15,SW,222,0.0,0.0,95,0.00,,,0.00,meteohub,2013-06-22 11:57:00,
2013-06-22 08:02:00,65.5,64.0,30.15,SW,222,0.0,0.0,95,0.00,,,0.00,meteohub,2013-06-22 12:02:00,
2013-06-22 08:07:00,65.7,64.2,30.15,SW,215,0.0,0.0,95,0.00,,,0.00,meteohub,2013-06-22 12:07:00,
2013-06-22 08:12:00,65.8,64.4,30.15,SW,215,0.0,0.0,95,0.00,,,0.00,meteohub,2013-06-22 12:12:00,
2013-06-22 08:17:00,66.0,64.2,30.16,SW,215,0.0,0.0,94,0.00,,,0.00,meteohub,2013-06-22 12:17:00,
2013-06-22 08:22:00,66.2,64.4,30.16,SW,215,0.0,1.0,94,0.00,,,0.00,meteohub,2013-06-22 12:22:00,
2013-06-22 08:27:00,66.4,64.2,30.16,SW,215,0.0,1.0,93,0.00,,,0.00,meteohub,2013-06-22 12:27:00,
2013-06-22 08:32:00,66.7,64.6,30.16,SW,215,0.0,1.0,93,0.00,,,0.00,meteohub,2013-06-22 12:32:00,
2013-06-22 08:37:00,66.9,64.6,30.16,SW,215,0.0,0.0,92,0.00,,,0.00,meteohub,2013-06-22 12:37:00,
2013-06-22 08:42:00,67.3,64.9,30.16,SW,217,0.0,0.0,92,0.00,,,0.00,meteohub,2013-06-22 12:42:00,
2013-06-22 08:47:00,67.5,64.8,30.16,SW,216,0.0,0.0,91,0.00,,,0.00,meteohub,2013-06-22 12:47:00,
2013-06-22 08:52:00,67.8,64.4,30.16,SW,216,0.0,1.0,89,0.00,,,0.00,meteohub,2013-06-22 12:52:00,
2013-06-22 08:57:00,68.2,63.9,30.17,SW,215,0.0,1.0,86,0.00,,,0.00,meteohub,2013-06-22 12:57:00,
2013-06-22 09:02:00,68.7,64.4,30.17,SSW,200,0.0,1.0,86,0.00,,,0.00,meteohub,2013-06-22 13:02:00,
2013-06-22 09:07:00,69.3,64.2,30.17,SSW,210,0.0,2.0,84,0.00,,,0.00,meteohub,2013-06-22 13:07:00,
2013-06-22 09:12:00,69.6,64.9,30.17,SSW,210,0.0,2.0,85,0.00,,,0.00,meteohub,2013-06-22 13:12:00,
2013-06-22 09:17:00,70.0,64.6,30.18,SSE,155,0.0,2.0,83,0.00,,,0.00,meteohub,2013-06-22 13:17:00,
2013-06-22 09:22:00,70.3,64.2,30.18,South,183,0.0,2.0,81,0.00,,,0.00,meteohub,2013-06-22 13:22:00,
2013-06-22 09:27:00,70.9,64.8,30.18,SSW,207,1.0,2.0,81,0.00,,,0.00,meteohub,2013-06-22 13:27:00,
2013-06-22 09:32:00,71.2,64.4,30.18,SSE,167,2.0,2.0,79,0.00,,,0.00,meteohub,2013-06-22 13:32:00,
2013-06-22 09:37:00,71.8,64.6,30.18,West,264,0.0,4.0,78,0.00,,,0.00,meteohub,2013-06-22 13:37:00,
2013-06-22 09:42:00,72.0,64.4,30.18,NW,322,0.0,4.0,77,0.00,,,0.00,meteohub,2013-06-22 13:42:00,
2013-06-22 09:47:00,72.3,64.4,30.18,SSE,160,2.0,2.0,76,0.00,,,0.00,meteohub,2013-06-22 13:47:00,
2013-06-22 09:52:00,72.7,64.8,30.18,NW,314,0.0,3.0,76,0.00,,,0.00,meteohub,2013-06-22 13:52:00,
2013-06-22 09:57:00,72.9,64.0,30.18,SW,229,0.0,3.0,74,0.00,,,0.00,meteohub,2013-06-22 13:57:00,
2013-06-22 10:02:00,73.4,64.6,30.18,North,349,1.0,3.0,74,0.00,,,0.00,meteohub,2013-06-22 14:02:00,
2013-06-22 10:07:00,74.1,65.7,30.18,SSE,155,2.0,3.0,75,0.00,,,0.00,meteohub,2013-06-22 14:07:00,
2013-06-22 10:12:00,74.8,65.7,30.18,SW,217,1.0,3.0,73,0.00,,,0.00,meteohub,2013-06-22 14:12:00,
2013-06-22 10:17:00,75.9,66.2,30.17,South,181,0.0,3.0,72,0.00,,,0.00,meteohub,2013-06-22 14:17:00,
2013-06-22 10:22:00,76.6,66.6,30.17,WNW,294,0.0,3.0,71,0.00,,,0.00,meteohub,2013-06-22 14:22:00,
2013-06-22 10:27:00,77.2,66.6,30.17,WNW,291,0.0,1.0,70,0.00,,,0.00,meteohub,2013-06-22 14:27:00,
2013-06-22 10:32:00,77.0,65.7,30.17,NNW,335,0.0,4.0,68,0.00,,,0.00,meteohub,2013-06-22 14:32:00,
2013-06-22 10:37:00,77.2,66.2,30.18,ESE,110,0.0,4.0,69,0.00,,,0.00,meteohub,2013-06-22 14:37:00,
2013-06-22 10:42:00,77.7,65.8,30.17,South,169,1.0,4.0,67,0.00,,,0.00,meteohub,2013-06-22 14:42:00,
2013-06-22 10:47:00,78.6,66.4,30.17,NW,323,0.0,3.0,66,0.00,,,0.00,meteohub,2013-06-22 14:47:00,
2013-06-22 10:52:00,79.0,66.6,30.18,South,170,1.0,3.0,66,0.00,,,0.00,meteohub,2013-06-22 14:52:00,
2013-06-22 10:57:00,79.0,66.2,30.17,SSE,158,0.0,4.0,65,0.00,,,0.00,meteohub,2013-06-22 14:57:00,
2013-06-22 11:02:00,79.0,65.8,30.17,SSW,212,0.0,4.0,64,0.00,,,0.00,meteohub,2013-06-22 15:02:00,
2013-06-22 11:07:00,79.2,65.8,30.17,North,354,0.0,4.0,64,0.00,,,0.00,meteohub,2013-06-22 15:07:00,
2013-06-22 11:12:00,79.5,65.8,30.18,SSE,163,0.0,3.0,63,0.00,,,0.00,meteohub,2013-06-22 15:12:00,
2013-06-22 11:17:00,79.5,65.3,30.18,SSE,156,1.0,2.0,62,0.00,,,0.00,meteohub,2013-06-22 15:17:00,
2013-06-22 11:22:00,79.3,66.0,30.18,SSE,165,4.0,4.0,64,0.00,,,0.00,meteohub,2013-06-22 15:22:00,
2013-06-22 11:27:00,79.3,65.1,30.18,WSW,243,0.0,4.0,62,0.00,,,0.00,meteohub,2013-06-22 15:27:00,
2013-06-22 11:32:00,79.3,66.0,30.18,South,171,0.0,4.0,64,0.00,,,0.00,meteohub,2013-06-22 15:32:00,
2013-06-22 11:37:00,79.0,66.2,30.18,South,170,1.0,4.0,65,0.00,,,0.00,meteohub,2013-06-22 15:37:00,
2013-06-22 11:42:00,79.2,65.5,30.18,SW,225,1.0,3.0,63,0.00,,,0.00,meteohub,2013-06-22 15:42:00,
2013-06-22 11:47:00,79.5,66.2,30.18,SSW,207,0.0,2.0,64,0.00,,,0.00,meteohub,2013-06-22 15:47:00,
2013-06-22 11:52:00,80.2,67.5,30.18,South,183,0.0,2.0,65,0.00,,,0.00,meteohub,2013-06-22 15:52:00,
2013-06-22 11:57:00,80.4,65.7,30.18,SSE,163,2.0,2.0,61,0.00,,,0.00,meteohub,2013-06-22 15:57:00,
2013-06-22 12:02:00,80.8,66.0,30.17,SSE,165,1.0,5.0,61,0.00,,,0.00,meteohub,2013-06-22 16:02:00,
2013-06-22 12:07:00,81.0,65.8,30.17,NNW,340,0.0,5.0,60,0.00,,,0.00,meteohub,2013-06-22 16:07:00,
2013-06-22 12:12:00,81.3,65.7,30.17,SSE,165,0.0,2.0,59,0.00,,,0.00,meteohub,2013-06-22 16:12:00,
2013-06-22 12:17:00,81.9,66.6,30.17,South,180,0.0,2.0,60,0.00,,,0.00,meteohub,2013-06-22 16:17:00,
2013-06-22 12:22:00,82.0,65.3,30.17,South,188,1.0,1.0,57,0.00,,,0.00,meteohub,2013-06-22 16:22:00,
2013-06-22 12:27:00,82.4,64.6,30.17,SSW,195,2.0,2.0,55,0.00,,,0.00,meteohub,2013-06-22 16:27:00,
2013-06-22 12:32:00,82.4,65.7,30.17,SSW,201,1.0,2.0,57,0.00,,,0.00,meteohub,2013-06-22 16:32:00,
2013-06-22 12:37:00,82.4,63.5,30.17,NW,312,0.0,3.0,53,0.00,,,0.00,meteohub,2013-06-22 16:37:00,
2013-06-22 12:42:00,82.8,66.9,30.17,NNW,328,1.0,3.0,59,0.00,,,0.00,meteohub,2013-06-22 16:42:00,
2013-06-22 12:48:00,82.8,66.9,30.17,SSE,165,0.0,2.0,59,0.00,,,0.00,meteohub,2013-06-22 16:48:00,
2013-06-22 12:53:00,82.6,66.7,30.17,North,4,1.0,2.0,59,0.00,,,0.00,meteohub,2013-06-22 16:53:00,
2013-06-22 12:58:00,82.9,65.7,30.17,SW,222,1.0,2.0,56,0.00,,,0.00,meteohub,2013-06-22 16:58:00,
2013-06-22 13:03:00,82.9,66.2,30.17,NNW,338,0.0,2.0,57,0.00,,,0.00,meteohub,2013-06-22 17:03:00,
2013-06-22 13:08:00,82.6,66.4,30.17,North,355,0.0,2.0,58,0.00,,,0.00,meteohub,2013-06-22 17:08:00,
2013-06-22 13:13:00,82.0,65.3,30.17,NNW,342,0.0,2.0,57,0.00,,,0.00,meteohub,2013-06-22 17:13:00,
2013-06-22 13:18:00,81.9,65.7,30.16,NNW,338,2.0,2.0,58,0.00,,,0.00,meteohub,2013-06-22 17:18:00,
2013-06-22 13:23:00,82.0,66.7,30.16,NNW,340,0.0,3.0,60,0.00,,,0.00,meteohub,2013-06-22 17:23:00,
2013-06-22 13:28:00,82.4,65.1,30.17,SSE,165,1.0,3.0,56,0.00,,,0.00,meteohub,2013-06-22 17:28:00,
2013-06-22 13:33:00,82.8,64.9,30.16,SE,131,0.0,3.0,55,0.00,,,0.00,meteohub,2013-06-22 17:33:00,
2013-06-22 13:38:00,82.9,64.6,30.16,SW,226,1.0,3.0,54,0.00,,,0.00,meteohub,2013-06-22 17:38:00,
2013-06-22 13:43:00,83.1,64.8,30.16,NW,319,0.0,3.0,54,0.00,,,0.00,meteohub,2013-06-22 17:43:00,
2013-06-22 13:48:00,82.8,64.9,30.16,SSE,148,1.0,2.0,55,0.00,,,0.00,meteohub,2013-06-22 17:48:00,
2013-06-22 13:53:00,82.9,65.1,30.15,South,187,2.0,2.0,55,0.00,,,0.00,meteohub,2013-06-22 17:53:00,
2013-06-22 13:58:00,82.9,66.6,30.15,WNW,285,1.0,4.0,58,0.00,,,0.00,meteohub,2013-06-22 17:58:00,
2013-06-22 14:03:00,83.1,64.8,30.15,SSW,193,0.0,4.0,54,0.00,,,0.00,meteohub,2013-06-22 18:03:00,
2013-06-22 14:08:00,83.3,64.4,30.15,South,180,2.0,2.0,53,0.00,,,0.00,meteohub,2013-06-22 18:08:00,
2013-06-22 14:13:00,83.5,65.1,30.15,South,183,0.0,2.0,54,0.00,,,0.00,meteohub,2013-06-22 18:13:00,
2013-06-22 14:18:00,83.8,66.0,30.14,NNW,347,1.0,2.0,55,0.00,,,0.00,meteohub,2013-06-22 18:18:00,
2013-06-22 14:23:00,83.3,65.5,30.14,SW,222,1.0,2.0,55,0.00,,,0.00,meteohub,2013-06-22 18:23:00,
2013-06-22 14:28:00,83.1,64.8,30.14,South,183,0.0,2.0,54,0.00,,,0.00,meteohub,2013-06-22 18:28:00,
2013-06-22 14:33:00,83.7,64.2,30.13,NW,309,0.0,2.0,52,0.00,,,0.00,meteohub,2013-06-22 18:33:00,
2013-06-22 14:38:00,83.7,64.8,30.13,SSW,201,0.0,2.0,53,0.00,,,0.00,meteohub,2013-06-22 18:38:00,
2013-06-22 14:43:00,84.0,64.6,30.13,SSW,197,0.0,3.0,52,0.00,,,0.00,meteohub,2013-06-22 18:43:00,
2013-06-22 14:48:00,84.4,65.8,30.13,NNW,345,2.0,3.0,54,0.00,,,0.00,meteohub,2013-06-22 18:48:00,
2013-06-22 14:53:00,83.8,64.9,30.13,NNW,347,1.0,3.0,53,0.00,,,0.00,meteohub,2013-06-22 18:53:00,
2013-06-22 14:58:00,83.7,65.3,30.13,SW,221,1.0,2.0,54,0.00,,,0.00,meteohub,2013-06-22 18:58:00,
2013-06-22 15:03:00,83.7,65.8,30.13,SW,235,0.0,2.0,55,0.00,,,0.00,meteohub,2013-06-22 19:03:00,
2013-06-22 15:08:00,84.0,65.1,30.13,NNW,327,1.0,1.0,53,0.00,,,0.00,meteohub,2013-06-22 19:08:00,
2013-06-22 15:13:00,84.0,65.1,30.13,NNW,327,1.0,2.0,53,0.00,,,0.00,meteohub,2013-06-22 19:13:00,
2013-06-22 15:18:00,83.8,65.5,30.12,ESE,122,0.0,2.0,54,0.00,,,0.00,meteohub,2013-06-22 19:18:00,
2013-06-22 15:23:00,83.8,66.0,30.12,East,85,0.0,2.0,55,0.00,,,0.00,meteohub,2013-06-22 19:23:00,
2013-06-22 15:28:00,83.5,64.6,30.12,SSW,201,2.0,3.0,53,0.00,,,0.00,meteohub,2013-06-22 19:28:00,
2013-06-22 15:33:00,82.8,64.4,30.12,SW,233,0.0,3.0,54,0.00,,,0.00,meteohub,2013-06-22 19:33:00,
2013-06-22 15:38:00,82.0,65.3,30.11,SSW,195,1.0,3.0,57,0.00,,,0.00,meteohub,2013-06-22 19:38:00,
2013-06-22 15:43:00,82.0,64.8,30.11,SSW,212,1.0,3.0,56,0.00,,,0.00,meteohub,2013-06-22 19:43:00,
2013-06-22 15:48:00,82.2,64.4,30.11,SW,222,0.0,1.0,55,0.00,,,0.00,meteohub,2013-06-22 19:48:00,
2013-06-22 15:53:00,82.4,64.6,30.10,NNW,332,1.0,2.0,55,0.00,,,0.00,meteohub,2013-06-22 19:53:00,
2013-06-22 15:58:00,82.4,64.6,30.10,WSW,252,0.0,2.0,55,0.00,,,0.00,meteohub,2013-06-22 19:58:00,
2013-06-22 16:03:00,82.6,64.2,30.10,South,190,0.0,2.0,54,0.00,,,0.00,meteohub,2013-06-22 20:03:00,
2013-06-22 16:08:00,82.8,64.9,30.10,South,183,1.0,2.0,55,0.00,,,0.00,meteohub,2013-06-22 20:08:00,
2013-06-22 16:13:00,82.8,64.4,30.10,SW,215,0.0,3.0,54,0.00,,,0.00,meteohub,2013-06-22 20:13:00,
2013-06-22 16:18:00,82.4,65.1,30.09,WSW,255,0.0,3.0,56,0.00,,,0.00,meteohub,2013-06-22 20:18:00,
2013-06-22 16:23:00,82.0,64.2,30.09,SE,143,0.0,3.0,55,0.00,,,0.00,meteohub,2013-06-22 20:23:00,
2013-06-22 16:28:00,82.2,64.4,30.09,SE,138,0.0,1.0,55,0.00,,,0.00,meteohub,2013-06-22 20:28:00,
2013-06-22 16:33:00,82.8,63.3,30.09,SSW,212,0.0,1.0,52,0.00,,,0.00,meteohub,2013-06-22 20:33:00,
2013-06-22 16:38:00,82.9,64.0,30.09,SW,224,1.0,1.0,53,0.00,,,0.00,meteohub,2013-06-22 20:38:00,
2013-06-22 16:43:00,83.1,64.2,30.09,South,175,1.0,1.0,53,0.00,,,0.00,meteohub,2013-06-22 20:43:00,
2013-06-22 16:48:00,83.1,64.2,30.09,North,351,0.0,1.0,53,0.00,,,0.00,meteohub,2013-06-22 20:48:00,
2013-06-22 16:53:00,82.9,65.7,30.09,North,352,0.0,2.0,56,0.00,,,0.00,meteohub,2013-06-22 20:53:00,
2013-06-22 16:58:00,82.6,64.8,30.09,NNW,347,0.0,2.0,55,0.00,,,0.00,meteohub,2013-06-22 20:58:00,
2013-06-22 17:04:00,82.0,64.8,30.09,North,349,0.0,2.0,56,0.00,,,0.00,meteohub,2013-06-22 21:04:00,
2013-06-22 17:08:00,81.9,65.7,30.09,NNW,348,0.0,2.0,58,0.00,,,0.00,meteohub,2013-06-22 21:08:00,
2013-06-22 17:14:00,81.5,64.8,30.09,NNW,345,0.0,2.0,57,0.00,,,0.00,meteohub,2013-06-22 21:14:00,
2013-06-22 17:19:00,81.1,64.9,30.09,NNW,345,0.0,2.0,58,0.00,,,0.00,meteohub,2013-06-22 21:19:00,
2013-06-22 17:24:00,80.8,65.1,30.08,NW,316,0.0,1.0,59,0.00,,,0.00,meteohub,2013-06-22 21:24:00,
2013-06-22 17:29:00,80.8,66.0,30.08,SSW,201,2.0,2.0,61,0.00,,,0.00,meteohub,2013-06-22 21:29:00,
2013-06-22 17:34:00,81.0,66.2,30.08,SSW,205,0.0,1.0,61,0.00,,,0.00,meteohub,2013-06-22 21:34:00,
2013-06-22 17:39:00,81.1,64.4,30.08,South,179,2.0,2.0,57,0.00,,,0.00,meteohub,2013-06-22 21:39:00,
2013-06-22 17:44:00,81.1,64.9,30.08,SW,229,0.0,2.0,58,0.00,,,0.00,meteohub,2013-06-22 21:44:00,
2013-06-22 17:49:00,81.1,64.9,30.08,South,180,2.0,2.0,58,0.00,,,0.00,meteohub,2013-06-22 21:49:00,
2013-06-22 17:54:00,81.1,64.9,30.08,SSW,194,0.0,2.0,58,0.00,,,0.00,meteohub,2013-06-22 21:54:00,
2013-06-22 17:59:00,81.0,64.8,30.07,SSW,194,0.0,2.0,58,0.00,,,0.00,meteohub,2013-06-22 21:59:00,
2013-06-22 18:04:00,80.8,65.7,30.07,SSW,195,0.0,2.0,60,0.00,,,0.00,meteohub,2013-06-22 22:04:00,
2013-06-22 18:09:00,80.6,65.5,30.07,SSW,194,0.0,1.0,60,0.00,,,0.00,meteohub,2013-06-22 22:09:00,
2013-06-22 18:14:00,80.6,65.5,30.07,SSW,194,0.0,1.0,60,0.00,,,0.00,meteohub,2013-06-22 22:14:00,
2013-06-22 18:19:00,80.6,66.4,30.07,SSW,194,0.0,1.0,62,0.00,,,0.00,meteohub,2013-06-22 22:19:00,
2013-06-22 18:24:00,80.4,64.8,30.07,NNW,337,1.0,0.0,59,0.00,,,0.00,meteohub,2013-06-22 22:24:00,
2013-06-22 18:29:00,80.2,65.1,30.06,NNW,338,0.0,1.0,60,0.00,,,0.00,meteohub,2013-06-22 22:29:00,
2013-06-22 18:34:00,80.1,64.4,30.07,NNW,338,0.0,2.0,59,0.00,,,0.00,meteohub,2013-06-22 22:34:00,
2013-06-22 18:39:00,79.9,64.8,30.06,NNW,338,0.0,2.0,60,0.00,,,0.00,meteohub,2013-06-22 22:39:00,
2013-06-22 18:44:00,79.9,64.8,30.06,NNW,338,0.0,1.0,60,0.00,,,0.00,meteohub,2013-06-22 22:44:00,
2013-06-22 18:49:00,79.9,65.7,30.06,NNW,339,0.0,1.0,62,0.00,,,0.00,meteohub,2013-06-22 22:49:00,
2013-06-22 18:54:00,79.7,65.1,30.06,NNW,338,0.0,1.0,61,0.00,,,0.00,meteohub,2013-06-22 22:54:00,
2013-06-22 18:59:00,79.5,65.3,30.06,NNW,339,0.0,0.0,62,0.00,,,0.00,meteohub,2013-06-22 22:59:00,
2013-06-22 19:04:00,79.3,65.7,30.06,NNW,339,0.0,0.0,63,0.00,,,0.00,meteohub,2013-06-22 23:04:00,
2013-06-22 19:09:00,79.3,66.0,30.06,WNW,302,0.0,0.0,64,0.00,,,0.00,meteohub,2013-06-22 23:09:00,
2013-06-22 19:14:00,79.2,65.8,30.06,WNW,302,0.0,0.0,64,0.00,,,0.00,meteohub,2013-06-22 23:14:00,
2013-06-22 19:19:00,79.0,66.2,30.06,WNW,302,0.0,0.0,65,0.00,,,0.00,meteohub,2013-06-22 23:19:00,
2013-06-22 19:24:00,79.0,66.6,30.06,WNW,302,0.0,0.0,66,0.00,,,0.00,meteohub,2013-06-22 23:24:00,
2013-06-22 19:29:00,78.8,66.6,30.05,WNW,302,0.0,0.0,66,0.00,,,0.00,meteohub,2013-06-22 23:29:00,
2013-06-22 19:34:00,78.6,66.7,30.06,WNW,302,0.0,0.0,67,0.00,,,0.00,meteohub,2013-06-22 23:34:00,
2013-06-22 19:39:00,78.6,66.7,30.06,WNW,302,0.0,0.0,67,0.00,,,0.00,meteohub,2013-06-22 23:39:00,
2013-06-22 19:44:00,78.4,66.6,30.06,WNW,302,0.0,0.0,67,0.00,,,0.00,meteohub,2013-06-22 23:44:00,
2013-06-22 19:49:00,78.3,66.7,30.05,WNW,302,0.0,1.0,68,0.00,,,0.00,meteohub,2013-06-22 23:49:00,
2013-06-22 19:54:00,78.1,66.7,30.05,WNW,302,0.0,1.0,68,0.00,,,0.00,meteohub,2013-06-22 23:54:00,
2013-06-22 19:59:00,77.9,66.6,30.05,WNW,302,0.0,1.0,68,0.00,,,0.00,meteohub,2013-06-22 23:59:00,
2013-06-22 20:04:00,77.7,66.4,30.05,WNW,302,0.0,0.0,68,0.00,,,0.00,meteohub,2013-06-23 00:04:00,
2013-06-22 20:10:00,77.5,66.2,30.05,WNW,302,0.0,0.0,68,0.00,,,0.00,meteohub,2013-06-23 00:10:00,
2013-06-22 20:15:00,77.4,66.4,30.05,WNW,302,0.0,0.0,69,0.00,,,0.00,meteohub,2013-06-23 00:15:00,
2013-06-22 20:20:00,77.2,67.1,30.05,WNW,302,0.0,0.0,71,0.00,,,0.00,meteohub,2013-06-23 00:20:00,
2013-06-22 20:25:00,76.8,66.7,30.05,WNW,302,0.0,0.0,71,0.00,,,0.00,meteohub,2013-06-23 00:25:00,
2013-06-22 20:30:00,76.6,67.3,30.06,WNW,302,0.0,0.0,73,0.00,,,0.00,meteohub,2013-06-23 00:30:00,
2013-06-22 20:35:00,76.3,66.9,30.06,WNW,302,0.0,0.0,73,0.00,,,0.00,meteohub,2013-06-23 00:35:00,
2013-06-22 20:40:00,75.9,67.1,30.06,WNW,302,0.0,0.0,74,0.00,,,0.00,meteohub,2013-06-23 00:40:00,
2013-06-22 20:45:00,75.7,67.3,30.06,WNW,302,0.0,0.0,75,0.00,,,0.00,meteohub,2013-06-23 00:45:00,
2013-06-22 20:50:00,75.4,67.3,30.06,WNW,302,0.0,0.0,76,0.00,,,0.00,meteohub,2013-06-23 00:50:00,
2013-06-22 20:55:00,75.0,66.9,30.06,WNW,302,0.0,0.0,76,0.00,,,0.00,meteohub,2013-06-23 00:55:00,
2013-06-22 21:00:00,74.8,67.1,30.06,WNW,302,0.0,0.0,77,0.00,,,0.00,meteohub,2013-06-23 01:00:00,
2013-06-22 21:05:00,74.5,67.5,30.06,WNW,302,0.0,0.0,79,0.00,,,0.00,meteohub,2013-06-23 01:05:00,
2013-06-22 21:10:00,74.1,67.1,30.07,WNW,302,0.0,0.0,79,0.00,,,0.00,meteohub,2013-06-23 01:10:00,
2013-06-22 21:15:00,73.9,67.5,30.07,WNW,302,0.0,0.0,80,0.00,,,0.00,meteohub,2013-06-23 01:15:00,
2013-06-22 21:20:00,73.6,67.1,30.07,WNW,302,0.0,0.0,80,0.00,,,0.00,meteohub,2013-06-23 01:20:00,
2013-06-22 21:25:00,73.2,67.1,30.07,WNW,302,0.0,0.0,81,0.00,,,0.00,meteohub,2013-06-23 01:25:00,
2013-06-22 21:30:00,73.0,66.9,30.07,WNW,302,0.0,0.0,81,0.00,,,0.00,meteohub,2013-06-23 01:30:00,
2013-06-22 21:35:00,73.0,67.3,30.08,WNW,302,0.0,0.0,82,0.00,,,0.00,meteohub,2013-06-23 01:35:00,
2013-06-22 21:40:00,72.9,67.1,30.08,WNW,302,0.0,0.0,82,0.00,,,0.00,meteohub,2013-06-23 01:40:00,
2013-06-22 21:45:00,72.7,67.3,30.08,WNW,302,0.0,0.0,83,0.00,,,0.00,meteohub,2013-06-23 01:45:00,
2013-06-22 21:50:00,72.7,67.3,30.08,WNW,302,0.0,0.0,83,0.00,,,0.00,meteohub,2013-06-23 01:50:00,
2013-06-22 21:55:00,72.3,67.6,30.09,WNW,302,0.0,0.0,85,0.00,,,0.00,meteohub,2013-06-23 01:55:00,
2013-06-22 22:00:00,72.1,67.5,30.09,WNW,302,0.0,0.0,85,0.00,,,0.00,meteohub,2013-06-23 02:00:00,
2013-06-22 22:05:00,72.0,67.3,30.09,WNW,302,0.0,0.0,85,0.00,,,0.00,meteohub,2013-06-23 02:05:00,
2013-06-22 22:10:00,72.0,67.5,30.09,WNW,302,0.0,0.0,86,0.00,,,0.00,meteohub,2013-06-23 02:10:00,
2013-06-22 22:15:00,71.8,67.3,30.09,WNW,302,0.0,0.0,86,0.00,,,0.00,meteohub,2013-06-23 02:15:00,
2013-06-22 22:20:00,71.4,67.3,30.09,WNW,302,0.0,0.0,87,0.00,,,0.00,meteohub,2013-06-23 02:20:00,
2013-06-22 22:25:00,71.4,67.3,30.09,WNW,302,0.0,0.0,87,0.00,,,0.00,meteohub,2013-06-23 02:25:00,
2013-06-22 22:30:00,71.2,67.1,30.09,WNW,302,0.0,0.0,87,0.00,,,0.00,meteohub,2013-06-23 02:30:00,
2013-06-22 22:35:00,71.2,67.5,30.09,WNW,302,0.0,0.0,88,0.00,,,0.00,meteohub,2013-06-23 02:35:00,
2013-06-22 22:40:00,71.2,67.5,30.10,WNW,302,0.0,0.0,88,0.00,,,0.00,meteohub,2013-06-23 02:40:00,
2013-06-22 22:45:00,71.1,67.6,30.10,WNW,302,0.0,0.0,89,0.00,,,0.00,meteohub,2013-06-23 02:45:00,
2013-06-22 22:50:00,71.1,67.6,30.10,WNW,302,0.0,0.0,89,0.00,,,0.00,meteohub,2013-06-23 02:50:00,
2013-06-22 22:55:00,71.1,67.6,30.10,WNW,302,0.0,0.0,89,0.00,,,0.00,meteohub,2013-06-23 02:55:00,
2013-06-22 23:00:00,70.9,67.5,30.10,WNW,302,0.0,0.0,89,0.00,,,0.00,meteohub,2013-06-23 03:00:00,
2013-06-22 23:06:00,70.7,67.3,30.11,WNW,302,0.0,0.0,89,0.00,,,0.00,meteohub,2013-06-23 03:06:00,
2013-06-22 23:11:00,70.5,67.5,30.11,WNW,302,0.0,0.0,90,0.00,,,0.00,meteohub,2013-06-23 03:11:00,
2013-06-22 23:16:00,70.5,67.5,30.11,WNW,302,0.0,0.0,90,0.00,,,0.00,meteohub,2013-06-23 03:16:00,
2013-06-22 23:21:00,70.3,67.3,30.11,WNW,302,0.0,0.0,90,0.00,,,0.00,meteohub,2013-06-23 03:21:00,
2013-06-22 23:26:00,70.3,67.3,30.11,WNW,302,0.0,0.0,90,0.00,,,0.00,meteohub,2013-06-23 03:26:00,
2013-06-22 23:31:00,70.2,67.1,30.11,WNW,302,0.0,0.0,90,0.00,,,0.00,meteohub,2013-06-23 03:31:00,
2013-06-22 23:36:00,70.2,67.1,30.11,WNW,302,0.0,0.0,90,0.00,,,0.00,meteohub,2013-06-23 03:36:00,
2013-06-22 23:41:00,70.0,66.9,30.11,WNW,302,0.0,0.0,90,0.00,,,0.00,meteohub,2013-06-23 03:41:00,
2013-06-22 23:46:00,70.0,67.3,30.11,WNW,302,0.0,0.0,91,0.00,,,0.00,meteohub,2013-06-23 03:46:00,
2013-06-22 23:51:00,69.8,67.1,30.11,WNW,302,0.0,0.0,91,0.00,,,0.00,meteohub,2013-06-23 03:51:00,
2013-06-22 23:56:00,69.6,66.9,30.11,WNW,302,0.0,0.0,91,0.00,,,0.00,meteohub,2013-06-23 03:56:00,